sensor_id;sensor_type;location;lat;lon;timestamp;pressure;altitude;pressure_sealevel;temperature;humidity
85163;BME280;75527;48.526;9.158;2024-03-22T00:02:16;97948.75;;;9.03;73.62
85163;BME280;75527;48.526;9.158;2024-03-22T00:04:41;97952.56;;;8.96;73.75
85163;BME280;75527;48.526;9.158;2024-03-22T00:07:06;97949.38;;;8.82;74.17
85163;BME280;75527;48.526;9.158;2024-03-22T00:09:31;97951.81;;;8.72;74.30
85163;BME280;75527;48.526;9.158;2024-03-22T00:11:57;97953.56;;;8.66;76.31
85163;BME280;75527;48.526;9.158;2024-03-22T00:14:23;97952.88;;;8.59;76.16
85163;BME280;75527;48.526;9.158;2024-03-22T00:16:48;97934.00;;;8.39;75.66
85163;BME280;75527;48.526;9.158;2024-03-22T00:19:13;97944.97;;;8.35;76.19
85163;BME280;75527;48.526;9.158;2024-03-22T00:21:39;97923.53;;;8.20;76.20
85163;BME280;75527;48.526;9.158;2024-03-22T00:24:04;97938.66;;;8.25;76.23
85163;BME280;75527;48.526;9.158;2024-03-22T00:26:29;97925.84;;;8.05;75.18
85163;BME280;75527;48.526;9.158;2024-03-22T00:28:55;97943.00;;;7.96;76.47
85163;BME280;75527;48.526;9.158;2024-03-22T00:31:22;97940.38;;;7.96;76.65
85163;BME280;75527;48.526;9.158;2024-03-22T00:33:48;97933.25;;;7.84;76.01
85163;BME280;75527;48.526;9.158;2024-03-22T00:36:13;97951.50;;;7.98;77.00
85163;BME280;75527;48.526;9.158;2024-03-22T00:38:38;97939.25;;;7.92;76.22
85163;BME280;75527;48.526;9.158;2024-03-22T00:41:04;97945.19;;;7.99;76.38
85163;BME280;75527;48.526;9.158;2024-03-22T00:43:29;97938.69;;;8.01;76.62
85163;BME280;75527;48.526;9.158;2024-03-22T00:45:54;97919.88;;;7.86;76.37
85163;BME280;75527;48.526;9.158;2024-03-22T00:48:19;97931.78;;;8.00;76.94
85163;BME280;75527;48.526;9.158;2024-03-22T00:50:45;97922.41;;;7.93;76.33
85163;BME280;75527;48.526;9.158;2024-03-22T00:53:10;97922.97;;;7.95;75.51
85163;BME280;75527;48.526;9.158;2024-03-22T00:55:36;97914.50;;;7.93;76.08
85163;BME280;75527;48.526;9.158;2024-03-22T00:58:02;97930.97;;;8.00;76.22
85163;BME280;75527;48.526;9.158;2024-03-22T01:00:27;97919.66;;;7.99;76.61
85163;BME280;75527;48.526;9.158;2024-03-22T01:02:52;97920.44;;;8.00;76.24
85163;BME280;75527;48.526;9.158;2024-03-22T01:05:18;97923.56;;;7.97;76.68
85163;BME280;75527;48.526;9.158;2024-03-22T01:07:43;97923.44;;;7.92;76.69
85163;BME280;75527;48.526;9.158;2024-03-22T01:10:10;97908.53;;;7.86;75.96
85163;BME280;75527;48.526;9.158;2024-03-22T01:12:35;97894.44;;;7.68;76.44
85163;BME280;75527;48.526;9.158;2024-03-22T01:15:01;97914.59;;;7.74;76.75
85163;BME280;75527;48.526;9.158;2024-03-22T01:17:26;97910.34;;;7.73;76.69
85163;BME280;75527;48.526;9.158;2024-03-22T01:19:51;97894.69;;;7.67;77.26
85163;BME280;75527;48.526;9.158;2024-03-22T01:22:17;97891.69;;;7.63;77.61
85163;BME280;75527;48.526;9.158;2024-03-22T01:24:43;97888.81;;;7.65;77.26
85163;BME280;75527;48.526;9.158;2024-03-22T01:27:09;97888.94;;;7.58;77.25
85163;BME280;75527;48.526;9.158;2024-03-22T01:29:34;97893.72;;;7.49;77.22
85163;BME280;75527;48.526;9.158;2024-03-22T01:31:59;97881.69;;;7.42;77.55
85163;BME280;75527;48.526;9.158;2024-03-22T01:34:24;97880.22;;;7.34;77.63
85163;BME280;75527;48.526;9.158;2024-03-22T01:36:51;97875.38;;;7.31;77.22
85163;BME280;75527;48.526;9.158;2024-03-22T01:39:16;97886.59;;;7.26;78.05
85163;BME280;75527;48.526;9.158;2024-03-22T01:41:43;97858.28;;;7.10;77.95
85163;BME280;75527;48.526;9.158;2024-03-22T01:44:09;97860.44;;;7.01;77.51
85163;BME280;75527;48.526;9.158;2024-03-22T01:46:34;97870.41;;;7.11;77.83
85163;BME280;75527;48.526;9.158;2024-03-22T01:49:00;97859.63;;;7.01;79.08
85163;BME280;75527;48.526;9.158;2024-03-22T01:51:25;97871.75;;;7.02;77.99
85163;BME280;75527;48.526;9.158;2024-03-22T01:53:52;97870.63;;;6.98;78.27
85163;BME280;75527;48.526;9.158;2024-03-22T01:56:19;97857.19;;;6.88;78.76
85163;BME280;75527;48.526;9.158;2024-03-22T01:58:44;97845.53;;;6.84;77.92
85163;BME280;75527;48.526;9.158;2024-03-22T02:01:10;97849.59;;;6.79;78.34
85163;BME280;75527;48.526;9.158;2024-03-22T02:03:35;97864.50;;;6.86;78.31
85163;BME280;75527;48.526;9.158;2024-03-22T02:06:01;97858.78;;;6.89;78.99
85163;BME280;75527;48.526;9.158;2024-03-22T02:08:26;97862.59;;;6.93;78.32
85163;BME280;75527;48.526;9.158;2024-03-22T02:10:51;97858.28;;;6.80;78.64
85163;BME280;75527;48.526;9.158;2024-03-22T02:13:18;97858.72;;;6.77;78.71
85163;BME280;75527;48.526;9.158;2024-03-22T02:15:43;97859.47;;;6.84;79.95
85163;BME280;75527;48.526;9.158;2024-03-22T02:18:08;97858.19;;;6.87;79.87
85163;BME280;75527;48.526;9.158;2024-03-22T02:20:34;97858.19;;;6.87;81.23
85163;BME280;75527;48.526;9.158;2024-03-22T02:23:00;97844.72;;;6.83;80.96
85163;BME280;75527;48.526;9.158;2024-03-22T02:25:25;97843.47;;;6.86;80.75
85163;BME280;75527;48.526;9.158;2024-03-22T02:27:50;97849.75;;;6.85;80.29
85163;BME280;75527;48.526;9.158;2024-03-22T02:30:17;97841.03;;;6.72;80.07
85163;BME280;75527;48.526;9.158;2024-03-22T02:32:42;97839.25;;;6.66;80.76
85163;BME280;75527;48.526;9.158;2024-03-22T02:35:08;97841.53;;;6.63;79.91
85163;BME280;75527;48.526;9.158;2024-03-22T02:37:33;97844.19;;;6.63;81.73
85163;BME280;75527;48.526;9.158;2024-03-22T02:39:58;97837.47;;;6.67;80.68
85163;BME280;75527;48.526;9.158;2024-03-22T02:42:24;97831.47;;;6.60;81.02
85163;BME280;75527;48.526;9.158;2024-03-22T02:44:49;97837.63;;;6.53;80.58
85163;BME280;75527;48.526;9.158;2024-03-22T02:47:14;97823.41;;;6.43;80.14
85163;BME280;75527;48.526;9.158;2024-03-22T02:49:40;97831.66;;;6.46;80.51
85163;BME280;75527;48.526;9.158;2024-03-22T02:52:06;97828.00;;;6.47;80.69
85163;BME280;75527;48.526;9.158;2024-03-22T02:54:31;97812.75;;;6.38;80.23
85163;BME280;75527;48.526;9.158;2024-03-22T02:56:57;97831.50;;;6.41;80.05
85163;BME280;75527;48.526;9.158;2024-03-22T02:59:25;97825.75;;;6.33;81.87
85163;BME280;75527;48.526;9.158;2024-03-22T03:01:51;97823.53;;;6.30;81.12
85163;BME280;75527;48.526;9.158;2024-03-22T03:04:16;97831.28;;;6.24;81.20
85163;BME280;75527;48.526;9.158;2024-03-22T03:06:41;97826.25;;;6.23;81.17
85163;BME280;75527;48.526;9.158;2024-03-22T03:09:06;97817.81;;;6.21;80.73
85163;BME280;75527;48.526;9.158;2024-03-22T03:11:33;97818.38;;;6.23;81.59
85163;BME280;75527;48.526;9.158;2024-03-22T03:13:58;97819.25;;;6.17;81.08
85163;BME280;75527;48.526;9.158;2024-03-22T03:16:24;97809.84;;;6.09;81.30
85163;BME280;75527;48.526;9.158;2024-03-22T03:18:49;97813.50;;;6.08;81.43
85163;BME280;75527;48.526;9.158;2024-03-22T03:21:14;97805.09;;;5.99;80.59
85163;BME280;75527;48.526;9.158;2024-03-22T03:23:40;97806.50;;;6.02;81.05
85163;BME280;75527;48.526;9.158;2024-03-22T03:26:05;97799.75;;;5.88;80.88
85163;BME280;75527;48.526;9.158;2024-03-22T03:28:30;97809.41;;;5.94;80.53
85163;BME280;75527;48.526;9.158;2024-03-22T03:30:55;97809.66;;;5.86;79.51
85163;BME280;75527;48.526;9.158;2024-03-22T03:33:21;97789.56;;;5.80;80.44
85163;BME280;75527;48.526;9.158;2024-03-22T03:35:46;97803.34;;;5.93;81.86
85163;BME280;75527;48.526;9.158;2024-03-22T03:38:12;97794.72;;;5.86;81.73
85163;BME280;75527;48.526;9.158;2024-03-22T03:40:38;97810.31;;;5.81;81.68
85163;BME280;75527;48.526;9.158;2024-03-22T03:43:03;97803.66;;;5.79;81.77
85163;BME280;75527;48.526;9.158;2024-03-22T03:45:28;97792.31;;;5.85;81.63
85163;BME280;75527;48.526;9.158;2024-03-22T03:47:54;97790.34;;;5.80;82.70
85163;BME280;75527;48.526;9.158;2024-03-22T03:50:19;97792.19;;;5.80;81.82
85163;BME280;75527;48.526;9.158;2024-03-22T03:52:44;97795.78;;;5.79;82.67
85163;BME280;75527;48.526;9.158;2024-03-22T03:55:09;97798.78;;;5.82;82.55
85163;BME280;75527;48.526;9.158;2024-03-22T03:57:35;97794.16;;;5.84;81.83
85163;BME280;75527;48.526;9.158;2024-03-22T04:00:00;97792.28;;;5.91;81.88
85163;BME280;75527;48.526;9.158;2024-03-22T04:02:25;97786.19;;;5.91;82.24
85163;BME280;75527;48.526;9.158;2024-03-22T04:04:54;97782.41;;;5.87;80.17
85163;BME280;75527;48.526;9.158;2024-03-22T04:07:22;97756.59;;;5.65;80.58
85163;BME280;75527;48.526;9.158;2024-03-22T04:09:47;97777.09;;;5.75;81.10
85163;BME280;75527;48.526;9.158;2024-03-22T04:12:12;97774.66;;;5.73;80.76
85163;BME280;75527;48.526;9.158;2024-03-22T04:14:38;97771.88;;;5.68;81.17
85163;BME280;75527;48.526;9.158;2024-03-22T04:17:03;97764.22;;;5.67;81.84
85163;BME280;75527;48.526;9.158;2024-03-22T04:19:29;97778.53;;;5.71;81.53
85163;BME280;75527;48.526;9.158;2024-03-22T04:21:54;97785.59;;;5.70;80.88
85163;BME280;75527;48.526;9.158;2024-03-22T04:24:19;97770.66;;;5.71;81.70
85163;BME280;75527;48.526;9.158;2024-03-22T04:26:45;97785.00;;;5.68;83.01
85163;BME280;75527;48.526;9.158;2024-03-22T04:29:10;97770.13;;;5.62;82.60
85163;BME280;75527;48.526;9.158;2024-03-22T04:31:35;97780.59;;;5.69;82.50
85163;BME280;75527;48.526;9.158;2024-03-22T04:34:00;97781.81;;;5.66;82.71
85163;BME280;75527;48.526;9.158;2024-03-22T04:36:26;97789.53;;;5.61;82.90
85163;BME280;75527;48.526;9.158;2024-03-22T04:38:51;97772.66;;;5.51;82.93
85163;BME280;75527;48.526;9.158;2024-03-22T04:41:16;97785.28;;;5.60;82.80
85163;BME280;75527;48.526;9.158;2024-03-22T04:43:43;97788.72;;;5.61;82.66
85163;BME280;75527;48.526;9.158;2024-03-22T04:46:08;97784.50;;;5.60;82.10
85163;BME280;75527;48.526;9.158;2024-03-22T04:48:33;97761.00;;;5.46;82.86
85163;BME280;75527;48.526;9.158;2024-03-22T04:50:59;97783.06;;;5.64;81.96
85163;BME280;75527;48.526;9.158;2024-03-22T04:53:24;97789.03;;;5.71;81.96
85163;BME280;75527;48.526;9.158;2024-03-22T04:55:50;97788.38;;;5.75;81.24
85163;BME280;75527;48.526;9.158;2024-03-22T04:58:17;97783.25;;;5.62;81.64
85163;BME280;75527;48.526;9.158;2024-03-22T05:00:43;97793.09;;;5.67;82.26
85163;BME280;75527;48.526;9.158;2024-03-22T05:03:09;97790.69;;;5.65;81.02
85163;BME280;75527;48.526;9.158;2024-03-22T05:05:35;97792.94;;;5.62;81.47
85163;BME280;75527;48.526;9.158;2024-03-22T05:08:01;97806.28;;;5.60;81.07
85163;BME280;75527;48.526;9.158;2024-03-22T05:10:27;97793.81;;;5.56;81.47
85163;BME280;75527;48.526;9.158;2024-03-22T05:12:54;97791.13;;;5.62;82.99
85163;BME280;75527;48.526;9.158;2024-03-22T05:15:19;97790.31;;;5.62;82.08
85163;BME280;75527;48.526;9.158;2024-03-22T05:17:45;97793.75;;;5.62;82.46
85163;BME280;75527;48.526;9.158;2024-03-22T05:20:10;97788.50;;;5.62;82.94
85163;BME280;75527;48.526;9.158;2024-03-22T05:22:39;97778.66;;;5.58;84.05
85163;BME280;75527;48.526;9.158;2024-03-22T05:25:04;97791.56;;;5.59;84.29
85163;BME280;75527;48.526;9.158;2024-03-22T05:27:31;97769.25;;;5.50;83.42
85163;BME280;75527;48.526;9.158;2024-03-22T05:29:56;97765.09;;;5.61;83.19
85163;BME280;75527;48.526;9.158;2024-03-22T05:32:22;97782.81;;;5.65;82.92
85163;BME280;75527;48.526;9.158;2024-03-22T05:34:47;97779.75;;;5.68;83.57
85163;BME280;75527;48.526;9.158;2024-03-22T05:37:13;97776.41;;;5.61;83.67
85163;BME280;75527;48.526;9.158;2024-03-22T05:39:38;97787.69;;;5.62;83.28
85163;BME280;75527;48.526;9.158;2024-03-22T05:42:05;97771.88;;;5.50;83.38
85163;BME280;75527;48.526;9.158;2024-03-22T05:44:31;97777.53;;;5.47;82.39
85163;BME280;75527;48.526;9.158;2024-03-22T05:46:57;97772.91;;;5.49;82.43
85163;BME280;75527;48.526;9.158;2024-03-22T05:49:22;97778.72;;;5.51;82.68
85163;BME280;75527;48.526;9.158;2024-03-22T05:51:47;97774.91;;;5.47;82.51
85163;BME280;75527;48.526;9.158;2024-03-22T05:54:13;97775.81;;;5.59;81.79
85163;BME280;75527;48.526;9.158;2024-03-22T05:56:38;97781.06;;;5.59;82.00
85163;BME280;75527;48.526;9.158;2024-03-22T05:59:03;97762.19;;;5.51;81.44
85163;BME280;75527;48.526;9.158;2024-03-22T06:01:28;97767.66;;;5.49;81.42
85163;BME280;75527;48.526;9.158;2024-03-22T06:03:54;97763.78;;;5.52;81.84
85163;BME280;75527;48.526;9.158;2024-03-22T06:06:19;97754.38;;;5.44;81.41
85163;BME280;75527;48.526;9.158;2024-03-22T06:08:47;97749.13;;;5.44;81.91
85163;BME280;75527;48.526;9.158;2024-03-22T06:11:17;97756.59;;;5.65;81.86
85163;BME280;75527;48.526;9.158;2024-03-22T06:13:42;97752.22;;;5.59;81.12
85163;BME280;75527;48.526;9.158;2024-03-22T06:16:07;97733.25;;;5.57;80.92
85163;BME280;75527;48.526;9.158;2024-03-22T06:18:33;97754.13;;;5.70;82.20
85163;BME280;75527;48.526;9.158;2024-03-22T06:20:58;97738.16;;;5.72;83.18
85163;BME280;75527;48.526;9.158;2024-03-22T06:23:23;97743.22;;;5.92;83.19
85163;BME280;75527;48.526;9.158;2024-03-22T06:25:52;97728.63;;;5.96;83.39
85163;BME280;75527;48.526;9.158;2024-03-22T06:28:18;97719.91;;;6.14;83.00
85163;BME280;75527;48.526;9.158;2024-03-22T06:30:43;97736.31;;;6.09;81.51
85163;BME280;75527;48.526;9.158;2024-03-22T06:33:08;97743.84;;;5.87;80.31
85163;BME280;75527;48.526;9.158;2024-03-22T06:35:34;97734.44;;;5.80;81.78
85163;BME280;75527;48.526;9.158;2024-03-22T06:37:59;97742.75;;;5.77;81.12
85163;BME280;75527;48.526;9.158;2024-03-22T06:40:27;97730.19;;;5.79;81.20
85163;BME280;75527;48.526;9.158;2024-03-22T06:42:53;97721.19;;;5.74;81.56
85163;BME280;75527;48.526;9.158;2024-03-22T06:45:18;97743.69;;;5.82;81.85
85163;BME280;75527;48.526;9.158;2024-03-22T06:47:43;97739.19;;;5.89;81.56
85163;BME280;75527;48.526;9.158;2024-03-22T06:50:09;97740.50;;;5.98;82.09
85163;BME280;75527;48.526;9.158;2024-03-22T06:52:34;97733.13;;;6.07;82.07
85163;BME280;75527;48.526;9.158;2024-03-22T06:55:00;97744.47;;;6.19;82.07
85163;BME280;75527;48.526;9.158;2024-03-22T06:57:25;97738.94;;;6.28;82.74
85163;BME280;75527;48.526;9.158;2024-03-22T06:59:51;97731.09;;;6.39;81.24
85163;BME280;75527;48.526;9.158;2024-03-22T07:02:16;97740.69;;;6.45;80.85
85163;BME280;75527;48.526;9.158;2024-03-22T07:04:43;97730.94;;;6.52;82.20
85163;BME280;75527;48.526;9.158;2024-03-22T07:07:09;97736.63;;;6.61;81.21
85163;BME280;75527;48.526;9.158;2024-03-22T07:09:34;97720.22;;;6.66;80.43
85163;BME280;75527;48.526;9.158;2024-03-22T07:11:59;97723.88;;;6.76;81.02
85163;BME280;75527;48.526;9.158;2024-03-22T07:14:25;97717.28;;;6.86;81.13
85163;BME280;75527;48.526;9.158;2024-03-22T07:16:51;97727.72;;;7.04;79.92
85163;BME280;75527;48.526;9.158;2024-03-22T07:19:18;97719.94;;;7.09;79.72
85163;BME280;75527;48.526;9.158;2024-03-22T07:21:44;97705.78;;;7.10;80.32
85163;BME280;75527;48.526;9.158;2024-03-22T07:24:09;97703.47;;;7.25;80.07
85163;BME280;75527;48.526;9.158;2024-03-22T07:26:35;97723.94;;;7.47;79.46
85163;BME280;75527;48.526;9.158;2024-03-22T07:29:00;97705.19;;;7.43;79.21
85163;BME280;75527;48.526;9.158;2024-03-22T07:31:26;97711.69;;;7.52;79.19
85163;BME280;75527;48.526;9.158;2024-03-22T07:33:53;97714.41;;;7.69;78.49
85163;BME280;75527;48.526;9.158;2024-03-22T07:36:18;97707.31;;;7.81;78.58
85163;BME280;75527;48.526;9.158;2024-03-22T07:38:44;97718.00;;;8.03;77.78
85163;BME280;75527;48.526;9.158;2024-03-22T07:41:09;97715.81;;;8.12;78.53
85163;BME280;75527;48.526;9.158;2024-03-22T07:43:35;97701.13;;;8.16;78.79
85163;BME280;75527;48.526;9.158;2024-03-22T07:46:00;97719.53;;;8.28;78.10
85163;BME280;75527;48.526;9.158;2024-03-22T07:48:25;97706.03;;;8.24;78.28
85163;BME280;75527;48.526;9.158;2024-03-22T07:50:58;97711.94;;;8.31;77.31
85163;BME280;75527;48.526;9.158;2024-03-22T07:53:23;97711.69;;;8.45;77.22
85163;BME280;75527;48.526;9.158;2024-03-22T07:55:49;97705.56;;;8.56;76.75
85163;BME280;75527;48.526;9.158;2024-03-22T07:58:14;97692.00;;;8.64;76.06
85163;BME280;75527;48.526;9.158;2024-03-22T08:00:39;97704.22;;;8.87;75.84
85163;BME280;75527;48.526;9.158;2024-03-22T08:03:05;97690.16;;;8.81;75.46
85163;BME280;75527;48.526;9.158;2024-03-22T08:05:31;97683.47;;;8.91;75.20
85163;BME280;75527;48.526;9.158;2024-03-22T08:07:56;97686.34;;;9.06;74.43
85163;BME280;75527;48.526;9.158;2024-03-22T08:10:21;97697.03;;;9.16;74.39
85163;BME280;75527;48.526;9.158;2024-03-22T08:12:48;97689.34;;;9.31;73.71
85163;BME280;75527;48.526;9.158;2024-03-22T08:15:14;97672.41;;;9.27;73.47
85163;BME280;75527;48.526;9.158;2024-03-22T08:17:39;97688.25;;;9.49;73.91
85163;BME280;75527;48.526;9.158;2024-03-22T08:20:05;97695.50;;;9.59;72.58
85163;BME280;75527;48.526;9.158;2024-03-22T08:22:31;97698.81;;;9.71;71.59
85163;BME280;75527;48.526;9.158;2024-03-22T08:24:56;97693.38;;;9.78;71.82
85163;BME280;75527;48.526;9.158;2024-03-22T08:27:21;97696.22;;;9.93;70.81
85163;BME280;75527;48.526;9.158;2024-03-22T08:29:47;97688.56;;;9.97;70.74
85163;BME280;75527;48.526;9.158;2024-03-22T08:32:12;97694.72;;;10.02;70.89
85163;BME280;75527;48.526;9.158;2024-03-22T08:34:38;97689.84;;;10.16;69.90
85163;BME280;75527;48.526;9.158;2024-03-22T08:37:03;97689.00;;;10.32;69.47
85163;BME280;75527;48.526;9.158;2024-03-22T08:39:29;97686.72;;;10.41;68.62
85163;BME280;75527;48.526;9.158;2024-03-22T08:41:55;97679.13;;;10.50;68.79
85163;BME280;75527;48.526;9.158;2024-03-22T08:44:21;97680.06;;;10.65;68.68
85163;BME280;75527;48.526;9.158;2024-03-22T08:46:47;97684.69;;;10.80;67.58
85163;BME280;75527;48.526;9.158;2024-03-22T08:49:12;97668.03;;;10.85;67.05
85163;BME280;75527;48.526;9.158;2024-03-22T08:51:38;97667.88;;;10.97;66.45
85163;BME280;75527;48.526;9.158;2024-03-22T08:54:03;97658.38;;;11.06;66.15
85163;BME280;75527;48.526;9.158;2024-03-22T08:56:29;97655.31;;;11.19;66.78
85163;BME280;75527;48.526;9.158;2024-03-22T08:58:54;97643.69;;;11.25;66.29
85163;BME280;75527;48.526;9.158;2024-03-22T09:01:20;97639.81;;;11.38;65.51
85163;BME280;75527;48.526;9.158;2024-03-22T09:03:46;97653.66;;;11.55;65.70
85163;BME280;75527;48.526;9.158;2024-03-22T09:06:12;97626.38;;;11.55;65.05
85163;BME280;75527;48.526;9.158;2024-03-22T09:08:37;97639.72;;;11.80;63.91
85163;BME280;75527;48.526;9.158;2024-03-22T09:11:03;97643.53;;;11.99;63.12
85163;BME280;75527;48.526;9.158;2024-03-22T09:13:28;97633.47;;;12.07;61.38
85163;BME280;75527;48.526;9.158;2024-03-22T09:15:59;97639.88;;;12.21;61.96
85163;BME280;75527;48.526;9.158;2024-03-22T09:18:25;97636.69;;;12.29;62.20
85163;BME280;75527;48.526;9.158;2024-03-22T09:20:54;97625.56;;;12.32;61.07
85163;BME280;75527;48.526;9.158;2024-03-22T09:23:19;97632.97;;;12.61;60.51
85163;BME280;75527;48.526;9.158;2024-03-22T09:25:46;97620.50;;;12.76;60.12
85163;BME280;75527;48.526;9.158;2024-03-22T09:28:12;97610.72;;;12.87;58.90
85163;BME280;75527;48.526;9.158;2024-03-22T09:30:38;97618.88;;;13.06;58.29
85163;BME280;75527;48.526;9.158;2024-03-22T09:33:05;97608.53;;;13.10;58.12
85163;BME280;75527;48.526;9.158;2024-03-22T09:35:30;97588.34;;;13.24;56.91
85163;BME280;75527;48.526;9.158;2024-03-22T09:37:56;97609.53;;;13.44;57.03
85163;BME280;75527;48.526;9.158;2024-03-22T09:40:21;97593.53;;;13.60;57.42
85163;BME280;75527;48.526;9.158;2024-03-22T09:42:48;97606.75;;;13.75;53.92
85163;BME280;75527;48.526;9.158;2024-03-22T09:45:15;97594.03;;;13.67;55.00
85163;BME280;75527;48.526;9.158;2024-03-22T09:47:44;97587.59;;;13.78;54.31
85163;BME280;75527;48.526;9.158;2024-03-22T09:50:10;97579.59;;;13.83;53.54
85163;BME280;75527;48.526;9.158;2024-03-22T09:52:38;97580.63;;;13.87;53.86
85163;BME280;75527;48.526;9.158;2024-03-22T09:55:05;97587.44;;;14.03;53.41
85163;BME280;75527;48.526;9.158;2024-03-22T09:57:31;97562.66;;;14.13;51.89
85163;BME280;75527;48.526;9.158;2024-03-22T09:59:57;97576.09;;;14.32;51.90
85163;BME280;75527;48.526;9.158;2024-03-22T10:02:23;97570.72;;;14.37;51.08
85163;BME280;75527;48.526;9.158;2024-03-22T10:04:50;97568.06;;;14.37;50.30
85163;BME280;75527;48.526;9.158;2024-03-22T10:07:17;97562.75;;;14.37;50.72
85163;BME280;75527;48.526;9.158;2024-03-22T10:09:42;97563.66;;;14.56;51.66
85163;BME280;75527;48.526;9.158;2024-03-22T10:12:09;97558.53;;;14.65;48.24
85163;BME280;75527;48.526;9.158;2024-03-22T10:14:34;97565.50;;;14.61;49.00
85163;BME280;75527;48.526;9.158;2024-03-22T10:17:02;97564.28;;;14.77;47.71
85163;BME280;75527;48.526;9.158;2024-03-22T10:19:27;97533.16;;;14.73;48.08
85163;BME280;75527;48.526;9.158;2024-03-22T10:22:03;97542.03;;;14.92;47.58
85163;BME280;75527;48.526;9.158;2024-03-22T10:24:29;97544.69;;;14.92;47.58
85163;BME280;75527;48.526;9.158;2024-03-22T10:26:55;97544.09;;;15.00;45.78
85163;BME280;75527;48.526;9.158;2024-03-22T10:29:21;97530.81;;;14.95;47.64
85163;BME280;75527;48.526;9.158;2024-03-22T10:31:48;97541.38;;;15.05;47.71
85163;BME280;75527;48.526;9.158;2024-03-22T10:34:14;97525.59;;;15.09;47.26
85163;BME280;75527;48.526;9.158;2024-03-22T10:36:40;97516.97;;;15.17;46.70
85163;BME280;75527;48.526;9.158;2024-03-22T10:39:05;97536.25;;;15.33;44.54
85163;BME280;75527;48.526;9.158;2024-03-22T10:41:31;97534.91;;;15.35;45.19
85163;BME280;75527;48.526;9.158;2024-03-22T10:43:57;97527.41;;;15.37;44.45
85163;BME280;75527;48.526;9.158;2024-03-22T10:46:29;97502.31;;;15.38;44.21
85163;BME280;75527;48.526;9.158;2024-03-22T10:48:55;97514.09;;;15.56;44.96
85163;BME280;75527;48.526;9.158;2024-03-22T10:51:21;97490.19;;;15.51;46.24
85163;BME280;75527;48.526;9.158;2024-03-22T10:53:49;97507.34;;;15.64;45.48
85163;BME280;75527;48.526;9.158;2024-03-22T10:56:16;97499.56;;;15.68;45.35
85163;BME280;75527;48.526;9.158;2024-03-22T10:58:42;97490.72;;;15.72;45.38
85163;BME280;75527;48.526;9.158;2024-03-22T11:01:22;97490.03;;;15.80;46.32
85163;BME280;75527;48.526;9.158;2024-03-22T11:03:48;97476.56;;;15.91;45.03
85163;BME280;75527;48.526;9.158;2024-03-22T11:06:18;97477.09;;;16.06;45.61
85163;BME280;75527;48.526;9.158;2024-03-22T11:08:44;97479.63;;;16.17;46.38
85163;BME280;75527;48.526;9.158;2024-03-22T11:11:11;97470.25;;;16.33;45.79
85163;BME280;75527;48.526;9.158;2024-03-22T11:13:38;97467.22;;;16.53;44.60
85163;BME280;75527;48.526;9.158;2024-03-22T11:16:04;97458.94;;;16.68;44.06
85163;BME280;75527;48.526;9.158;2024-03-22T11:18:30;97463.13;;;16.88;44.36
85163;BME280;75527;48.526;9.158;2024-03-22T11:20:55;97457.91;;;17.11;43.57
85163;BME280;75527;48.526;9.158;2024-03-22T11:23:20;97451.63;;;17.29;40.80
85163;BME280;75527;48.526;9.158;2024-03-22T11:25:46;97437.56;;;17.37;40.10
85163;BME280;75527;48.526;9.158;2024-03-22T11:28:11;97450.91;;;17.37;41.38
85163;BME280;75527;48.526;9.158;2024-03-22T11:30:37;97448.13;;;17.42;39.92
85163;BME280;75527;48.526;9.158;2024-03-22T11:33:03;97437.69;;;17.55;39.03
85163;BME280;75527;48.526;9.158;2024-03-22T11:35:29;97438.63;;;17.73;36.64
85163;BME280;75527;48.526;9.158;2024-03-22T11:37:54;97428.44;;;17.97;36.12
85163;BME280;75527;48.526;9.158;2024-03-22T11:40:21;97410.56;;;17.84;36.44
85163;BME280;75527;48.526;9.158;2024-03-22T11:42:50;97424.59;;;18.12;35.95
85163;BME280;75527;48.526;9.158;2024-03-22T11:45:17;97411.59;;;17.96;37.55
85163;BME280;75527;48.526;9.158;2024-03-22T11:47:44;97409.75;;;18.37;36.52
85163;BME280;75527;48.526;9.158;2024-03-22T11:50:12;97412.72;;;18.66;35.30
85163;BME280;75527;48.526;9.158;2024-03-22T11:52:40;97408.38;;;18.79;35.22
85163;BME280;75527;48.526;9.158;2024-03-22T11:55:06;97387.47;;;19.16;34.53
85163;BME280;75527;48.526;9.158;2024-03-22T11:57:31;97397.44;;;19.67;33.35
85163;BME280;75527;48.526;9.158;2024-03-22T12:00:01;97404.53;;;19.46;33.81
85163;BME280;75527;48.526;9.158;2024-03-22T12:02:28;97392.97;;;19.02;34.26
85163;BME280;75527;48.526;9.158;2024-03-22T12:04:53;97393.72;;;18.85;34.54
85163;BME280;75527;48.526;9.158;2024-03-22T12:07:19;97399.88;;;18.86;34.19
85163;BME280;75527;48.526;9.158;2024-03-22T12:09:44;97375.47;;;19.48;32.57
85163;BME280;75527;48.526;9.158;2024-03-22T12:12:11;97379.72;;;20.01;31.47
85163;BME280;75527;48.526;9.158;2024-03-22T12:14:37;97380.88;;;20.29;32.60
85163;BME280;75527;48.526;9.158;2024-03-22T12:17:02;97378.22;;;20.21;32.15
85163;BME280;75527;48.526;9.158;2024-03-22T12:19:28;97363.00;;;19.87;30.95
85163;BME280;75527;48.526;9.158;2024-03-22T12:21:54;97357.97;;;20.32;31.19
85163;BME280;75527;48.526;9.158;2024-03-22T12:24:19;97347.63;;;20.13;31.45
85163;BME280;75527;48.526;9.158;2024-03-22T12:26:44;97342.63;;;19.94;30.72
85163;BME280;75527;48.526;9.158;2024-03-22T12:29:12;97335.19;;;20.00;31.69
85163;BME280;75527;48.526;9.158;2024-03-22T12:31:38;97339.28;;;20.06;30.20
85163;BME280;75527;48.526;9.158;2024-03-22T12:34:03;97332.44;;;20.17;31.28
85163;BME280;75527;48.526;9.158;2024-03-22T12:36:28;97325.38;;;20.04;31.98
85163;BME280;75527;48.526;9.158;2024-03-22T12:38:54;97316.63;;;20.16;31.50
85163;BME280;75527;48.526;9.158;2024-03-22T12:41:19;97315.22;;;19.80;30.11
85163;BME280;75527;48.526;9.158;2024-03-22T12:43:44;97315.31;;;20.01;30.25
85163;BME280;75527;48.526;9.158;2024-03-22T12:46:10;97298.84;;;20.11;31.04
85163;BME280;75527;48.526;9.158;2024-03-22T12:48:35;97284.25;;;19.83;30.29
85163;BME280;75527;48.526;9.158;2024-03-22T12:51:01;97303.28;;;20.07;30.39
85163;BME280;75527;48.526;9.158;2024-03-22T12:53:26;97291.34;;;19.87;31.24
85163;BME280;75527;48.526;9.158;2024-03-22T12:55:52;97292.72;;;20.02;30.70
85163;BME280;75527;48.526;9.158;2024-03-22T12:58:17;97296.25;;;20.23;29.99
85163;BME280;75527;48.526;9.158;2024-03-22T13:00:42;97283.22;;;20.04;30.96